DAL2979 KMKE-KMSP
Flight info
| Callsign | DAL2979 |
|---|---|
| Flight time | 0h 49m |
| Altitude | 32000 |
| Route | HAWKN ROBBY KBULL KKILR4 |
| Aircraft | A321/M-SDE3FGHIRWY/LB1 |
Departure
| Time | 2026-04-21 01:20 |
|---|---|
| Airport | General Mitchell International Airport (KMKE) |
Arrival
| Time | 2026-04-21 02:10 |
|---|---|
| Airport | Minneapolis–Saint Paul International Airport / Wold–Chamberlain Field (KMSP) |
| Time | Latitude | Longitude | Altitude | Speed | Heading |
|---|---|---|---|---|---|
| 2026-04-21 01:01 | 42.94848 | -87.89922 | 688 ft | 0 kts | 99° |
| 2026-04-21 01:11 | 42.94848 | -87.89923 | 688 ft | 1 kts | 99° |
| 2026-04-21 01:11 | 42.94852 | -87.89956 | 686 ft | 4 kts | 99° |
| 2026-04-21 01:12 | 42.94857 | -87.89992 | 681 ft | 4 kts | 99° |
| 2026-04-21 01:12 | 42.94859 | -87.90007 | 684 ft | 0 kts | 99° |
| 2026-04-21 01:15 | 42.94866 | -87.89999 | 683 ft | 3 kts | 39° |
| 2026-04-21 01:15 | 42.94893 | -87.89976 | 685 ft | 4 kts | 32° |
| 2026-04-21 01:15 | 42.94919 | -87.89952 | 687 ft | 7 kts | 38° |
| 2026-04-21 01:15 | 42.94964 | -87.89896 | 684 ft | 11 kts | 50° |
| 2026-04-21 01:16 | 42.94983 | -87.89786 | 688 ft | 10 kts | 103° |
| 2026-04-21 01:16 | 42.94974 | -87.89686 | 688 ft | 13 kts | 91° |
| 2026-04-21 01:16 | 42.95006 | -87.89586 | 684 ft | 11 kts | 22° |
| 2026-04-21 01:16 | 42.95078 | -87.89571 | 684 ft | 11 kts | 8° |
| 2026-04-21 01:17 | 42.95173 | -87.89552 | 686 ft | 16 kts | 8° |
| 2026-04-21 01:17 | 42.95278 | -87.89533 | 683 ft | 14 kts | 7° |
| 2026-04-21 01:17 | 42.95376 | -87.89518 | 684 ft | 17 kts | 6° |
| 2026-04-21 01:17 | 42.95502 | -87.89497 | 686 ft | 18 kts | 7° |
| 2026-04-21 01:18 | 42.95619 | -87.89477 | 686 ft | 16 kts | 7° |
| 2026-04-21 01:18 | 42.95717 | -87.89458 | 685 ft | 5 kts | 13° |
| 2026-04-21 01:18 | 42.95738 | -87.89436 | 685 ft | 3 kts | 57° |
| 2026-04-21 01:18 | 42.95744 | -87.89388 | 688 ft | 11 kts | 87° |
| 2026-04-21 01:19 | 42.95715 | -87.89301 | 683 ft | 10 kts | 170° |
| 2026-04-21 01:19 | 42.95697 | -87.89304 | 682 ft | 0 kts | 188° |
| 2026-04-21 01:19 | 42.95694 | -87.89305 | 683 ft | 6 kts | 188° |
| 2026-04-21 01:19 | 42.95383 | -87.89362 | 684 ft | 81 kts | 187° |
| 2026-04-21 01:20 | 42.94613 | -87.89499 | 684 ft | 139 kts | 187° |
| 2026-04-21 01:20 | 42.93504 | -87.89673 | 820 ft | 172 kts | 184° |
| 2026-04-21 01:20 | 42.92347 | -87.89850 | 1624 ft | 166 kts | 186° |
| 2026-04-21 01:20 | 42.91213 | -87.90025 | 2438 ft | 162 kts | 188° |
| 2026-04-21 01:21 | 42.90105 | -87.90196 | 3189 ft | 159 kts | 189° |
| 2026-04-21 01:21 | 42.89014 | -87.90377 | 3878 ft | 158 kts | 194° |
| 2026-04-21 01:21 | 42.88000 | -87.91079 | 4114 ft | 176 kts | 229° |
| 2026-04-21 01:21 | 42.87531 | -87.92690 | 4267 ft | 198 kts | 265° |
| 2026-04-21 01:22 | 42.87629 | -87.94652 | 4421 ft | 218 kts | 275° |
| 2026-04-21 01:22 | 42.87854 | -87.96778 | 4804 ft | 231 kts | 282° |
| 2026-04-21 01:22 | 42.88550 | -87.98757 | 5529 ft | 236 kts | 309° |
| 2026-04-21 01:22 | 42.89863 | -88.00089 | 6255 ft | 238 kts | 331° |
| 2026-04-21 01:23 | 42.91340 | -88.01093 | 7045 ft | 236 kts | 331° |
| 2026-04-21 01:23 | 42.92813 | -88.02085 | 7780 ft | 236 kts | 330° |
| 2026-04-21 01:23 | 42.94283 | -88.03072 | 8516 ft | 236 kts | 330° |
| 2026-04-21 01:23 | 42.95755 | -88.04060 | 9241 ft | 236 kts | 329° |
| 2026-04-21 01:24 | 42.97228 | -88.05053 | 9964 ft | 237 kts | 329° |
| 2026-04-21 01:24 | 42.98703 | -88.06050 | 10639 ft | 237 kts | 329° |
| 2026-04-21 01:24 | 43.00211 | -88.07073 | 11007 ft | 251 kts | 329° |
| 2026-04-21 01:24 | 43.01844 | -88.08185 | 11157 ft | 273 kts | 329° |
| 2026-04-21 01:25 | 43.03610 | -88.09386 | 11284 ft | 294 kts | 329° |
| 2026-04-21 01:25 | 43.05501 | -88.10669 | 11424 ft | 313 kts | 329° |
| 2026-04-21 01:25 | 43.07513 | -88.12031 | 11568 ft | 331 kts | 330° |
| 2026-04-21 01:25 | 43.09632 | -88.13464 | 11717 ft | 348 kts | 330° |
| 2026-04-21 01:26 | 43.11843 | -88.14959 | 12016 ft | 358 kts | 330° |
| 2026-04-21 01:26 | 43.14074 | -88.16467 | 12695 ft | 357 kts | 330° |
| 2026-04-21 01:26 | 43.16320 | -88.17987 | 13148 ft | 363 kts | 330° |
| 2026-04-21 01:26 | 43.18561 | -88.19602 | 13648 ft | 364 kts | 324° |
| 2026-04-21 01:27 | 43.20424 | -88.21923 | 14155 ft | 364 kts | 308° |
| 2026-04-21 01:27 | 43.21908 | -88.24738 | 14657 ft | 365 kts | 306° |
| 2026-04-21 01:27 | 43.23375 | -88.27588 | 15154 ft | 367 kts | 306° |
| 2026-04-21 01:27 | 43.24843 | -88.30454 | 15641 ft | 368 kts | 306° |
| 2026-04-21 01:28 | 43.26318 | -88.33339 | 16110 ft | 370 kts | 306° |
| 2026-04-21 01:28 | 43.27797 | -88.36236 | 16612 ft | 371 kts | 306° |
| 2026-04-21 01:28 | 43.29285 | -88.39146 | 17073 ft | 373 kts | 306° |
| 2026-04-21 01:28 | 43.30781 | -88.42067 | 17537 ft | 375 kts | 306° |
| 2026-04-21 01:29 | 43.32287 | -88.45007 | 18015 ft | 377 kts | 306° |
| 2026-04-21 01:29 | 43.33799 | -88.47964 | 18467 ft | 379 kts | 306° |
| 2026-04-21 01:29 | 43.35312 | -88.50926 | 18909 ft | 380 kts | 306° |
| 2026-04-21 01:29 | 43.36835 | -88.53898 | 19297 ft | 381 kts | 306° |
| 2026-04-21 01:30 | 43.38368 | -88.56885 | 19688 ft | 383 kts | 306° |
| 2026-04-21 01:30 | 43.39908 | -88.59894 | 20067 ft | 385 kts | 306° |
| 2026-04-21 01:30 | 43.41450 | -88.62920 | 20439 ft | 388 kts | 306° |
| 2026-04-21 01:30 | 43.42999 | -88.65965 | 20823 ft | 390 kts | 306° |
| 2026-04-21 01:31 | 43.44557 | -88.69032 | 21185 ft | 392 kts | 306° |
| 2026-04-21 01:31 | 43.46124 | -88.72116 | 21537 ft | 394 kts | 306° |
| 2026-04-21 01:31 | 43.47695 | -88.75217 | 21892 ft | 396 kts | 306° |
| 2026-04-21 01:31 | 43.49278 | -88.78339 | 22229 ft | 399 kts | 306° |
| 2026-04-21 01:32 | 43.50870 | -88.81482 | 22566 ft | 401 kts | 306° |
| 2026-04-21 01:32 | 43.52472 | -88.84639 | 22894 ft | 403 kts | 306° |
| 2026-04-21 01:32 | 43.54081 | -88.87813 | 23202 ft | 405 kts | 306° |
| 2026-04-21 01:32 | 43.55697 | -88.91004 | 23557 ft | 407 kts | 306° |
| 2026-04-21 01:33 | 43.57322 | -88.94213 | 23869 ft | 409 kts | 306° |
| 2026-04-21 01:33 | 43.58947 | -88.97434 | 24162 ft | 410 kts | 306° |
| 2026-04-21 01:33 | 43.60577 | -89.00675 | 24457 ft | 412 kts | 306° |
| 2026-04-21 01:33 | 43.62214 | -89.03933 | 24739 ft | 414 kts | 306° |
| 2026-04-21 01:34 | 43.63855 | -89.07201 | 25000 ft | 415 kts | 306° |
| 2026-04-21 01:34 | 43.65499 | -89.10474 | 25343 ft | 414 kts | 306° |
| 2026-04-21 01:34 | 43.67139 | -89.13740 | 25721 ft | 413 kts | 306° |
| 2026-04-21 01:34 | 43.68769 | -89.16997 | 26112 ft | 411 kts | 306° |
| 2026-04-21 01:35 | 43.70391 | -89.20245 | 26497 ft | 410 kts | 306° |
| 2026-04-21 01:35 | 43.72006 | -89.23486 | 26880 ft | 409 kts | 306° |
| 2026-04-21 01:35 | 43.73612 | -89.26715 | 27232 ft | 407 kts | 306° |
| 2026-04-21 01:35 | 43.75214 | -89.29930 | 27618 ft | 405 kts | 306° |
| 2026-04-21 01:36 | 43.76810 | -89.33130 | 27991 ft | 404 kts | 306° |
| 2026-04-21 01:36 | 43.78401 | -89.36323 | 28377 ft | 402 kts | 306° |
| 2026-04-21 01:36 | 43.79985 | -89.39507 | 28745 ft | 401 kts | 306° |
| 2026-04-21 01:36 | 43.81563 | -89.42688 | 29105 ft | 400 kts | 306° |
| 2026-04-21 01:37 | 43.83133 | -89.45859 | 29477 ft | 399 kts | 306° |
| 2026-04-21 01:37 | 43.84699 | -89.49025 | 29827 ft | 398 kts | 306° |
| 2026-04-21 01:37 | 43.86260 | -89.52182 | 30185 ft | 397 kts | 306° |
| 2026-04-21 01:37 | 43.87819 | -89.55330 | 30496 ft | 396 kts | 306° |
| 2026-04-21 01:38 | 43.89376 | -89.58471 | 30786 ft | 394 kts | 306° |
| 2026-04-21 01:38 | 43.90923 | -89.61602 | 31091 ft | 393 kts | 306° |
| 2026-04-21 01:38 | 43.92465 | -89.64730 | 31403 ft | 392 kts | 306° |
| 2026-04-21 01:38 | 43.94000 | -89.67848 | 31719 ft | 391 kts | 306° |
| 2026-04-21 01:39 | 43.95530 | -89.70960 | 32021 ft | 390 kts | 306° |
| 2026-04-21 01:39 | 43.97056 | -89.74070 | 32132 ft | 389 kts | 306° |
| 2026-04-21 01:39 | 44.00090 | -89.80266 | 32147 ft | 388 kts | 306° |
| 2026-04-21 01:40 | 44.03124 | -89.86461 | 32168 ft | 388 kts | 305° |
| 2026-04-21 01:40 | 44.06150 | -89.92659 | 32143 ft | 388 kts | 305° |
| 2026-04-21 01:41 | 44.09174 | -89.98867 | 32156 ft | 388 kts | 305° |
| 2026-04-21 01:41 | 44.12199 | -90.05080 | 32110 ft | 390 kts | 305° |
| 2026-04-21 01:42 | 44.15275 | -90.11430 | 32117 ft | 399 kts | 305° |
| 2026-04-21 01:42 | 44.18390 | -90.17846 | 32116 ft | 401 kts | 305° |
| 2026-04-21 01:43 | 44.21504 | -90.24289 | 32123 ft | 401 kts | 305° |
| 2026-04-21 01:43 | 44.24608 | -90.30751 | 32113 ft | 401 kts | 305° |
| 2026-04-21 01:44 | 44.27709 | -90.37215 | 32141 ft | 401 kts | 305° |
| 2026-04-21 01:44 | 44.30813 | -90.43682 | 32120 ft | 401 kts | 304° |
| 2026-04-21 01:45 | 44.33916 | -90.50160 | 32120 ft | 401 kts | 304° |
| 2026-04-21 01:45 | 44.36806 | -90.56820 | 32124 ft | 403 kts | 296° |
| 2026-04-21 01:46 | 44.38934 | -90.64073 | 32120 ft | 405 kts | 292° |
| 2026-04-21 01:46 | 44.42921 | -90.81329 | 32117 ft | 405 kts | 290° |
| 2026-04-21 01:47 | 44.46300 | -90.96183 | 32126 ft | 390 kts | 290° |
| 2026-04-21 01:47 | 44.49613 | -91.10713 | 32182 ft | 393 kts | 290° |
| 2026-04-21 01:47 | 44.52904 | -91.25289 | 32028 ft | 395 kts | 290° |
| 2026-04-21 01:47 | 44.53910 | -91.29718 | 31912 ft | 390 kts | 290° |
| 2026-04-21 01:48 | 44.54731 | -91.33347 | 31117 ft | 392 kts | 290° |
| 2026-04-21 01:48 | 44.55548 | -91.36969 | 30768 ft | 388 kts | 290° |
| 2026-04-21 01:48 | 44.56361 | -91.40598 | 29892 ft | 392 kts | 290° |
| 2026-04-21 01:48 | 44.57176 | -91.44250 | 29241 ft | 390 kts | 290° |
| 2026-04-21 01:49 | 44.57975 | -91.47850 | 28729 ft | 383 kts | 290° |
| 2026-04-21 01:49 | 44.58760 | -91.51394 | 28226 ft | 378 kts | 290° |
| 2026-04-21 01:49 | 44.59532 | -91.54889 | 27703 ft | 373 kts | 290° |
| 2026-04-21 01:49 | 44.60050 | -91.57227 | 27372 ft | 369 kts | 289° |
| 2026-04-21 01:50 | 44.61050 | -91.61748 | 26722 ft | 364 kts | 289° |
| 2026-04-21 01:50 | 44.61798 | -91.65124 | 26239 ft | 360 kts | 289° |
| 2026-04-21 01:50 | 44.62299 | -91.67383 | 25920 ft | 357 kts | 289° |
| 2026-04-21 01:50 | 44.63032 | -91.70693 | 25441 ft | 353 kts | 289° |
| 2026-04-21 01:51 | 44.63754 | -91.73970 | 24974 ft | 350 kts | 289° |
| 2026-04-21 01:51 | 44.64471 | -91.77224 | 24513 ft | 347 kts | 289° |
| 2026-04-21 01:51 | 44.65181 | -91.80452 | 24057 ft | 345 kts | 289° |
| 2026-04-21 01:51 | 44.65888 | -91.83662 | 23594 ft | 343 kts | 289° |
| 2026-04-21 01:52 | 44.66590 | -91.86860 | 23095 ft | 341 kts | 289° |
| 2026-04-21 01:52 | 44.67971 | -91.93193 | 22262 ft | 337 kts | 288° |
| 2026-04-21 01:52 | 44.68656 | -91.96335 | 21854 ft | 335 kts | 288° |
| 2026-04-21 01:53 | 44.69335 | -91.99457 | 21461 ft | 333 kts | 288° |
| 2026-04-21 01:53 | 44.70010 | -92.02560 | 21076 ft | 331 kts | 288° |
| 2026-04-21 01:53 | 44.70681 | -92.05645 | 20690 ft | 329 kts | 288° |
| 2026-04-21 01:53 | 44.71347 | -92.08716 | 20329 ft | 328 kts | 288° |
| 2026-04-21 01:54 | 44.72009 | -92.11776 | 19965 ft | 326 kts | 288° |
| 2026-04-21 01:54 | 44.72664 | -92.14817 | 19595 ft | 324 kts | 288° |
| 2026-04-21 01:54 | 44.73312 | -92.17845 | 19236 ft | 322 kts | 288° |
| 2026-04-21 01:54 | 44.73961 | -92.20855 | 18886 ft | 321 kts | 288° |
| 2026-04-21 01:55 | 44.74607 | -92.23848 | 18532 ft | 319 kts | 287° |
| 2026-04-21 01:55 | 44.75249 | -92.26831 | 18117 ft | 318 kts | 287° |
| 2026-04-21 01:55 | 44.75888 | -92.29802 | 17739 ft | 317 kts | 287° |
| 2026-04-21 01:55 | 44.76526 | -92.32779 | 17396 ft | 318 kts | 287° |
| 2026-04-21 01:56 | 44.77162 | -92.35756 | 17009 ft | 317 kts | 287° |
| 2026-04-21 01:56 | 44.77797 | -92.38720 | 16658 ft | 316 kts | 287° |
| 2026-04-21 01:56 | 44.78430 | -92.41678 | 16271 ft | 315 kts | 287° |
| 2026-04-21 01:56 | 44.79061 | -92.44631 | 15895 ft | 315 kts | 287° |
| 2026-04-21 01:57 | 44.79689 | -92.47577 | 15511 ft | 314 kts | 287° |
| 2026-04-21 01:57 | 44.80314 | -92.50518 | 15120 ft | 313 kts | 287° |
| 2026-04-21 01:57 | 44.80935 | -92.53452 | 14733 ft | 312 kts | 287° |
| 2026-04-21 01:57 | 44.81556 | -92.56382 | 14349 ft | 312 kts | 287° |
| 2026-04-21 01:58 | 44.82242 | -92.59298 | 13754 ft | 316 kts | 289° |
| 2026-04-21 01:58 | 44.83015 | -92.62181 | 13305 ft | 313 kts | 291° |
| 2026-04-21 01:58 | 44.83812 | -92.65017 | 12894 ft | 310 kts | 291° |
| 2026-04-21 01:58 | 44.84605 | -92.67822 | 12474 ft | 307 kts | 291° |
| 2026-04-21 01:59 | 44.85385 | -92.70614 | 12069 ft | 305 kts | 291° |
| 2026-04-21 01:59 | 44.86157 | -92.73393 | 11670 ft | 304 kts | 290° |
| 2026-04-21 01:59 | 44.86921 | -92.76159 | 11256 ft | 302 kts | 290° |
| 2026-04-21 01:59 | 44.87675 | -92.78912 | 10853 ft | 300 kts | 290° |
| 2026-04-21 02:00 | 44.88407 | -92.81611 | 10657 ft | 289 kts | 290° |
| 2026-04-21 02:00 | 44.89109 | -92.84208 | 10534 ft | 278 kts | 290° |
| 2026-04-21 02:00 | 44.89784 | -92.86706 | 10367 ft | 269 kts | 290° |
| 2026-04-21 02:00 | 44.90442 | -92.89146 | 10108 ft | 264 kts | 290° |
| 2026-04-21 02:01 | 44.91092 | -92.91551 | 9909 ft | 261 kts | 290° |
| 2026-04-21 02:01 | 44.91738 | -92.93949 | 9788 ft | 261 kts | 290° |
| 2026-04-21 02:01 | 44.92382 | -92.96343 | 9644 ft | 261 kts | 290° |
| 2026-04-21 02:01 | 44.93024 | -92.98737 | 9452 ft | 262 kts | 290° |
| 2026-04-21 02:02 | 44.93674 | -93.01163 | 8953 ft | 264 kts | 290° |
| 2026-04-21 02:02 | 44.94319 | -93.03561 | 8529 ft | 264 kts | 290° |
| 2026-04-21 02:02 | 44.94968 | -93.05969 | 8300 ft | 257 kts | 289° |
| 2026-04-21 02:02 | 44.95586 | -93.08278 | 8180 ft | 246 kts | 289° |
| 2026-04-21 02:03 | 44.96219 | -93.10463 | 8064 ft | 237 kts | 296° |
| 2026-04-21 02:03 | 44.97053 | -93.12457 | 7999 ft | 235 kts | 298° |
| 2026-04-21 02:03 | 44.97891 | -93.14438 | 8001 ft | 235 kts | 298° |
| 2026-04-21 02:03 | 44.98729 | -93.16421 | 7999 ft | 235 kts | 298° |
| 2026-04-21 02:04 | 44.99563 | -93.18397 | 7775 ft | 233 kts | 298° |
| 2026-04-21 02:04 | 45.00392 | -93.20362 | 7384 ft | 232 kts | 298° |
| 2026-04-21 02:04 | 45.01216 | -93.22323 | 7036 ft | 231 kts | 298° |
| 2026-04-21 02:04 | 45.02036 | -93.24274 | 6694 ft | 230 kts | 298° |
| 2026-04-21 02:05 | 45.02837 | -93.26225 | 6367 ft | 228 kts | 293° |
| 2026-04-21 02:05 | 45.03189 | -93.28368 | 6020 ft | 224 kts | 268° |
| 2026-04-21 02:05 | 45.02814 | -93.30475 | 5682 ft | 222 kts | 242° |
| 2026-04-21 02:05 | 45.01821 | -93.32093 | 5262 ft | 219 kts | 217° |
| 2026-04-21 02:06 | 45.00485 | -93.33109 | 4712 ft | 216 kts | 211° |
| 2026-04-21 02:06 | 44.99147 | -93.34021 | 4221 ft | 210 kts | 207° |
| 2026-04-21 02:06 | 44.97742 | -93.34555 | 3635 ft | 208 kts | 195° |
| 2026-04-21 02:06 | 44.96382 | -93.34946 | 3332 ft | 191 kts | 192° |
| 2026-04-21 02:07 | 44.95070 | -93.34679 | 2782 ft | 199 kts | 159° |
| 2026-04-21 02:07 | 44.94113 | -93.33217 | 2507 ft | 206 kts | 126° |
| 2026-04-21 02:07 | 44.93448 | -93.31562 | 2392 ft | 184 kts | 131° |
| 2026-04-21 02:07 | 44.92779 | -93.30098 | 2183 ft | 169 kts | 131° |
| 2026-04-21 02:08 | 44.92185 | -93.28755 | 1982 ft | 155 kts | 131° |
| 2026-04-21 02:08 | 44.91625 | -93.27478 | 1762 ft | 151 kts | 128° |
| 2026-04-21 02:08 | 44.91077 | -93.26219 | 1512 ft | 151 kts | 126° |
| 2026-04-21 02:08 | 44.90534 | -93.24969 | 1339 ft | 148 kts | 125° |
| 2026-04-21 02:09 | 44.90001 | -93.23741 | 1146 ft | 146 kts | 125° |
| 2026-04-21 02:09 | 44.89471 | -93.22516 | 962 ft | 146 kts | 124° |
| 2026-04-21 02:09 | 44.88956 | -93.21294 | 829 ft | 139 kts | 130° |
| 2026-04-21 02:09 | 44.88554 | -93.20383 | 824 ft | 68 kts | 122° |
| 2026-04-21 02:10 | 44.88426 | -93.20098 | 825 ft | 18 kts | 133° |
| 2026-04-21 02:10 | 44.88359 | -93.20037 | 826 ft | 10 kts | 159° |
| 2026-04-21 02:10 | 44.88298 | -93.20035 | 825 ft | 8 kts | 219° |
| 2026-04-21 02:10 | 44.88304 | -93.20102 | 825 ft | 7 kts | 296° |
| 2026-04-21 02:11 | 44.88354 | -93.20224 | 825 ft | 22 kts | 301° |
| 2026-04-21 02:11 | 44.88436 | -93.20413 | 824 ft | 22 kts | 301° |
| 2026-04-21 02:11 | 44.88513 | -93.20594 | 822 ft | 21 kts | 301° |
| 2026-04-21 02:11 | 44.88587 | -93.20765 | 825 ft | 20 kts | 303° |
| 2026-04-21 02:12 | 44.88657 | -93.20923 | 822 ft | 18 kts | 301° |
| 2026-04-21 02:12 | 44.88720 | -93.21069 | 825 ft | 17 kts | 301° |
| 2026-04-21 02:12 | 44.88775 | -93.21196 | 823 ft | 13 kts | 301° |
| 2026-04-21 02:12 | 44.88784 | -93.21270 | 825 ft | 7 kts | 255° |
| 2026-04-21 02:13 | 44.88754 | -93.21321 | 825 ft | 9 kts | 224° |
| 2026-04-21 02:13 | 44.88681 | -93.21423 | 825 ft | 17 kts | 225° |
| 2026-04-21 02:13 | 44.88601 | -93.21533 | 825 ft | 15 kts | 216° |
| 2026-04-21 02:13 | 44.88513 | -93.21566 | 825 ft | 10 kts | 166° |
| 2026-04-21 02:14 | 44.88473 | -93.21505 | 825 ft | 8 kts | 113° |
| 2026-04-21 02:14 | 44.88453 | -93.21439 | 825 ft | 4 kts | 112° |
| 2026-04-21 02:14 | 44.88435 | -93.21419 | 825 ft | 3 kts | 167° |
| 2026-04-21 02:14 | 44.88418 | -93.21430 | 825 ft | 4 kts | 214° |
| 2026-04-21 02:15 | 44.88398 | -93.21452 | 824 ft | 3 kts | 218° |
| 2026-04-21 02:15 | 44.88392 | -93.21458 | 825 ft | 0 kts | 219° |